Time;durP1;ratioP1;P1;durP2;ratioP2;P2;SDS_P1;SDS_P2;PMS_P1;PMS_P2;Temp;Humidity;BMP_temperature;BMP_pressure;BME280_temperature;BME280_humidity;BME280_pressure;Samples;Min_cycle;Max_cycle;Signal;HPM_P1;HPM_P2
2022/03/31 00:01:04;;;;;;;33.33;24.17;;;7.50;99.90;;;;;;5011657;28;20490;-76
2022/03/31 00:03:29;;;;;;;31.67;24.30;;;7.40;99.90;;;;;;5011078;28;20033;-76
2022/03/31 00:05:55;;;;;;;32.80;24.67;;;7.40;99.90;;;;;;5011993;28;20026;-76
2022/03/31 00:08:21;;;;;;;35.00;24.83;;;7.40;99.90;;;;;;5011935;28;20026;-76
2022/03/31 00:10:52;;;;;;;36.83;25.73;;;7.40;99.90;;;;;;5012037;28;20032;-76
2022/03/31 00:13:29;;;;;;;32.77;24.50;;;7.40;99.90;;;;;;5012196;28;20057;-76
2022/03/31 00:15:56;;;;;;;34.07;24.07;;;7.40;99.90;;;;;;5006889;28;20038;-80
2022/03/31 00:18:22;;;;;;;32.77;23.63;;;7.30;99.90;;;;;;5011875;28;20144;-80
2022/03/31 00:20:49;;;;;;;33.43;23.47;;;7.30;99.90;;;;;;5010688;28;20030;-80
2022/03/31 00:23:15;;;;;;;32.23;24.80;;;7.40;99.90;;;;;;5012181;28;20040;-80
2022/03/31 00:25:42;;;;;;;32.97;24.00;;;7.30;99.90;;;;;;5011998;28;20502;-80
2022/03/31 00:28:08;;;;;;;34.30;23.97;;;7.30;99.90;;;;;;5011955;28;20109;-80
2022/03/31 00:30:33;;;;;;;34.43;25.30;;;7.30;99.90;;;;;;5011749;28;20575;-80
2022/03/31 00:33:00;;;;;;;33.30;23.57;;;7.30;99.90;;;;;;5021187;28;20053;-80
2022/03/31 00:35:27;;;;;;;30.93;24.47;;;7.30;99.90;;;;;;5011739;28;20501;-80
2022/03/31 00:37:52;;;;;;;29.27;22.43;;;7.40;99.90;;;;;;5011471;28;20033;-80
2022/03/31 00:40:20;;;;;;;27.67;20.83;;;7.50;99.90;;;;;;5026659;28;20022;-80
2022/03/31 00:42:49;;;;;;;30.90;23.07;;;7.60;99.90;;;;;;5011901;28;20033;-80
2022/03/31 00:45:21;;;;;;;29.17;22.53;;;7.60;99.90;;;;;;5010004;28;20022;-81
2022/03/31 00:47:47;;;;;;;30.47;23.53;;;7.70;99.90;;;;;;5011581;28;20022;-80
2022/03/31 00:50:14;;;;;;;35.47;22.87;;;7.70;99.90;;;;;;5010033;28;20034;-80
2022/03/31 00:52:40;;;;;;;34.17;23.47;;;7.90;99.90;;;;;;5011717;28;20034;-80
2022/03/31 00:55:06;;;;;;;35.30;24.87;;;8.00;99.90;;;;;;5009929;28;20030;-80
2022/03/31 00:57:34;;;;;;;32.13;23.40;;;7.90;99.90;;;;;;5007115;28;20484;-80
2022/03/31 01:00:00;;;;;;;35.37;24.67;;;7.90;99.90;;;;;;5000512;28;20475;-80
2022/03/31 01:02:30;;;;;;;37.27;26.00;;;7.90;99.90;;;;;;4991875;28;20050;-80
2022/03/31 01:04:58;;;;;;;34.77;25.43;;;7.90;99.90;;;;;;4991728;28;20104;-80
2022/03/31 01:07:26;;;;;;;39.50;26.90;;;7.90;99.90;;;;;;5004116;28;20136;-80
2022/03/31 01:09:53;;;;;;;35.47;25.50;;;7.80;99.90;;;;;;5011037;28;20036;-79
2022/03/31 01:12:19;;;;;;;36.13;26.37;;;7.80;99.90;;;;;;5011085;28;20393;-80
2022/03/31 01:14:44;;;;;;;36.97;26.67;;;7.70;99.90;;;;;;5009539;28;20026;-79
2022/03/31 01:17:10;;;;;;;40.50;27.70;;;7.60;99.90;;;;;;5010659;28;20026;-80
2022/03/31 01:19:36;;;;;;;40.57;27.93;;;7.50;99.90;;;;;;5011033;28;20041;-80
2022/03/31 01:22:05;;;;;;;38.13;27.63;;;7.40;99.90;;;;;;5010951;28;20052;-80
2022/03/31 01:24:31;;;;;;;41.23;28.03;;;7.50;99.90;;;;;;5010933;28;20025;-80
2022/03/31 01:26:57;;;;;;;36.63;27.17;;;7.50;99.90;;;;;;5010862;28;20076;-80
2022/03/31 01:29:26;;;;;;;34.40;25.67;;;7.50;99.90;;;;;;5010601;28;20034;-80
2022/03/31 01:31:53;;;;;;;40.23;28.50;;;7.40;99.90;;;;;;5010705;28;20046;-80
2022/03/31 01:34:18;;;;;;;41.00;28.27;;;7.40;99.90;;;;;;5010881;28;20052;-80
2022/03/31 01:36:44;;;;;;;39.30;27.20;;;7.30;99.90;;;;;;5010623;28;20037;-80
2022/03/31 01:39:10;;;;;;;38.13;28.00;;;7.20;99.90;;;;;;5010937;28;20087;-81
2022/03/31 01:41:35;;;;;;;39.03;27.10;;;7.30;99.90;;;;;;5010584;28;20112;-81
2022/03/31 01:44:01;;;;;;;41.83;28.70;;;7.20;99.90;;;;;;5010743;28;20026;-81
2022/03/31 01:46:27;;;;;;;41.13;29.07;;;7.20;99.90;;;;;;5010615;28;20053;-80
2022/03/31 01:48:53;;;;;;;40.13;28.57;;;7.10;99.90;;;;;;5010418;28;20101;-80
2022/03/31 01:51:19;;;;;;;45.07;30.93;;;7.10;99.90;;;;;;5010897;28;20034;-80
2022/03/31 01:53:44;;;;;;;38.30;27.90;;;7.00;99.90;;;;;;5011001;28;20696;-80
2022/03/31 01:56:10;;;;;;;42.53;30.63;;;7.00;99.90;;;;;;5010594;28;20123;-80
2022/03/31 01:58:36;;;;;;;41.67;29.83;;;7.10;99.90;;;;;;5008515;28;20026;-80
2022/03/31 02:01:01;;;;;;;42.23;30.27;;;7.00;99.90;;;;;;4992657;28;20029;-80
2022/03/31 02:03:27;;;;;;;39.30;27.47;;;7.00;99.90;;;;;;4990942;28;20384;-80
2022/03/31 02:05:53;;;;;;;39.53;27.80;;;7.00;99.90;;;;;;4989593;28;20037;-80
2022/03/31 02:08:19;;;;;;;40.83;29.23;;;7.00;99.90;;;;;;5000242;28;20021;-80
2022/03/31 02:10:45;;;;;;;40.27;29.40;;;7.00;99.90;;;;;;5025878;28;20026;-80
2022/03/31 02:13:11;;;;;;;39.07;28.10;;;7.00;99.90;;;;;;5010623;28;20045;-80
2022/03/31 02:15:37;;;;;;;37.80;27.73;;;7.00;99.90;;;;;;5010037;28;20044;-80
2022/03/31 02:18:02;;;;;;;42.33;29.70;;;7.10;99.90;;;;;;5010342;28;20054;-80
2022/03/31 02:20:30;;;;;;;40.70;29.60;;;7.00;99.90;;;;;;5025411;28;20022;-80
2022/03/31 02:22:56;;;;;;;39.37;28.83;;;7.00;99.90;;;;;;5010588;28;20026;-80
2022/03/31 02:25:23;;;;;;;40.57;29.67;;;7.00;99.90;;;;;;5010496;28;20757;-81
2022/03/31 02:27:52;;;;;;;42.83;31.00;;;7.00;99.90;;;;;;5008723;28;20160;-80
2022/03/31 02:30:19;;;;;;;43.87;30.77;;;6.90;99.90;;;;;;5010197;28;20022;-80
2022/03/31 02:32:44;;;;;;;45.47;30.63;;;6.90;99.90;;;;;;5009039;28;20568;-80
2022/03/31 02:35:11;;;;;;;39.20;28.63;;;6.90;99.90;;;;;;5010108;28;20135;-81
2022/03/31 02:37:37;;;;;;;37.07;27.03;;;6.90;99.90;;;;;;5009810;28;20018;-80
2022/03/31 02:40:04;;;;;;;38.10;27.60;;;7.10;99.90;;;;;;5008676;28;20493;-80
2022/03/31 02:42:31;;;;;;;36.63;27.37;;;7.30;99.90;;;;;;5010137;28;20026;-80
2022/03/31 02:44:57;;;;;;;35.47;26.77;;;7.30;99.90;;;;;;5009988;28;20053;-81
2022/03/31 02:47:23;;;;;;;39.03;28.47;;;7.30;99.90;;;;;;5010003;28;20379;-80
2022/03/31 02:49:49;;;;;;;39.80;28.60;;;7.30;99.90;;;;;;5009887;28;20029;-80
2022/03/31 02:52:14;;;;;;;37.57;26.73;;;7.30;99.90;;;;;;5009472;28;20029;-80
2022/03/31 02:57:24;;;;;;;40.70;29.43;;;7.30;99.90;;;;;;5008625;28;20037;-81
2022/03/31 02:59:50;;;;;;;38.60;27.53;;;7.20;99.90;;;;;;5013293;28;20026;-80
2022/03/31 03:02:15;;;;;;;38.77;27.83;;;7.10;99.90;;;;;;5013708;28;20065;-80
2022/03/31 03:04:42;;;;;;;41.90;28.80;;;7.00;99.90;;;;;;5013541;28;20033;-80
2022/03/31 03:07:07;;;;;;;39.70;28.03;;;7.00;99.90;;;;;;5029918;28;20132;-80
2022/03/31 03:09:33;;;;;;;44.60;31.33;;;6.90;99.90;;;;;;5014205;28;20100;-80
2022/03/31 03:11:58;;;;;;;39.43;27.93;;;6.90;99.90;;;;;;5014379;28;20427;-80
2022/03/31 03:14:24;;;;;;;42.07;29.90;;;6.80;99.90;;;;;;5012842;28;20104;-80
2022/03/31 03:16:49;;;;;;;45.13;30.40;;;6.80;99.90;;;;;;5013022;28;20030;-80
2022/03/31 03:19:15;;;;;;;41.30;29.87;;;6.80;99.90;;;;;;5025134;28;20077;-80
2022/03/31 03:21:41;;;;;;;39.03;28.97;;;6.80;99.90;;;;;;4993434;28;20061;-79
2022/03/31 03:24:06;;;;;;;40.20;27.97;;;6.80;99.90;;;;;;4993534;28;20023;-80
2022/03/31 03:26:32;;;;;;;38.50;27.57;;;6.80;99.90;;;;;;4992037;28;20030;-80
2022/03/31 03:28:58;;;;;;;42.10;30.57;;;6.90;99.90;;;;;;5003933;28;20034;-80
2022/03/31 03:31:24;;;;;;;39.40;28.17;;;6.90;99.90;;;;;;5012835;28;20052;-80
2022/03/31 03:33:49;;;;;;;39.87;29.83;;;6.80;99.90;;;;;;5011922;28;20466;-80
2022/03/31 03:36:18;;;;;;;45.77;31.00;;;7.00;99.90;;;;;;5013022;28;20257;-80
2022/03/31 03:38:44;;;;;;;44.93;30.40;;;6.90;99.90;;;;;;5004184;28;20149;-80
2022/03/31 03:41:12;;;;;;;46.60;31.60;;;6.80;99.90;;;;;;4993305;28;20061;-80
2022/03/31 03:43:42;;;;;;;44.87;30.67;;;6.80;99.90;;;;;;4993481;28;20019;-80
2022/03/31 03:46:08;;;;;;;49.50;32.37;;;6.70;99.90;;;;;;4993015;28;20065;-80
2022/03/31 03:48:34;;;;;;;54.43;36.20;;;6.70;99.90;;;;;;4994035;28;20069;-80
2022/03/31 03:51:00;;;;;;;52.70;34.70;;;6.70;99.90;;;;;;4991915;28;20022;-80
2022/03/31 03:53:25;;;;;;;52.60;34.40;;;6.70;99.90;;;;;;4992052;28;20034;-80
2022/03/31 03:55:51;;;;;;;51.57;34.37;;;6.60;99.90;;;;;;4991803;28;20113;-80
2022/03/31 03:58:18;;;;;;;48.53;33.57;;;6.60;99.90;;;;;;4999814;28;20467;-80
2022/03/31 04:00:43;;;;;;;49.43;34.27;;;6.60;99.90;;;;;;5012645;28;20101;-80
2022/03/31 04:03:09;;;;;;;60.30;36.63;;;6.60;99.90;;;;;;5011715;28;20116;-80
2022/03/31 04:05:35;;;;;;;60.23;36.60;;;6.60;99.90;;;;;;5012354;28;20026;-80
2022/03/31 04:08:00;;;;;;;55.33;35.23;;;6.60;99.90;;;;;;5012146;28;20029;-80
2022/03/31 04:10:26;;;;;;;54.97;35.80;;;6.60;99.90;;;;;;5012661;28;20386;-80
2022/03/31 04:12:52;;;;;;;53.63;35.37;;;6.60;99.90;;;;;;5012504;28;20414;-80
2022/03/31 04:15:17;;;;;;;47.70;33.13;;;6.60;99.90;;;;;;5023324;28;20076;-79
2022/03/31 04:17:43;;;;;;;53.40;34.10;;;6.60;99.90;;;;;;5025823;28;20536;-80
2022/03/31 04:20:13;;;;;;;52.27;34.97;;;6.60;99.90;;;;;;5022596;28;20492;-80
2022/03/31 04:22:40;;;;;;;53.03;34.83;;;6.60;99.90;;;;;;5028994;28;20047;-80
2022/03/31 04:25:08;;;;;;;56.87;36.27;;;6.60;99.90;;;;;;5028629;28;20094;-78
2022/03/31 04:27:35;;;;;;;55.73;36.60;;;6.60;99.90;;;;;;5019227;28;20038;-79
2022/03/31 04:30:02;;;;;;;55.67;35.40;;;6.60;99.90;;;;;;5017626;28;20022;-78
2022/03/31 04:32:28;;;;;;;55.60;36.87;;;6.60;99.90;;;;;;5027803;28;20529;-78
2022/03/31 04:34:54;;;;;;;58.53;37.90;;;6.60;99.90;;;;;;5027642;28;20025;-78
2022/03/31 04:37:19;;;;;;;58.40;36.57;;;6.60;99.90;;;;;;5003796;28;20052;-78
2022/03/31 04:39:45;;;;;;;56.70;36.73;;;6.60;99.90;;;;;;5006905;28;20391;-78
2022/03/31 04:42:10;;;;;;;58.33;37.77;;;6.60;99.90;;;;;;5028467;28;20466;-78
2022/03/31 04:44:39;;;;;;;61.83;38.07;;;6.60;99.90;;;;;;5026490;28;20072;-79
2022/03/31 04:47:08;;;;;;;65.37;39.40;;;6.60;99.90;;;;;;5028126;28;20025;-79
2022/03/31 04:49:34;;;;;;;59.50;37.53;;;6.60;99.90;;;;;;5030320;28;20036;-79
2022/03/31 04:52:00;;;;;;;57.37;38.87;;;6.60;99.90;;;;;;5027643;28;20033;-79
2022/03/31 04:54:26;;;;;;;58.97;37.97;;;6.60;99.90;;;;;;5026067;28;20052;-79
2022/03/31 04:56:51;;;;;;;60.50;40.37;;;6.60;99.90;;;;;;5024582;28;20414;-79
2022/03/31 04:59:17;;;;;;;61.10;38.57;;;6.60;99.90;;;;;;5023397;28;20010;-79
2022/03/31 05:01:43;;;;;;;59.77;38.10;;;6.60;99.90;;;;;;5026677;28;20062;-79
2022/03/31 05:04:10;;;;;;;53.70;36.80;;;6.60;99.90;;;;;;5026275;28;20034;-79
2022/03/31 05:06:35;;;;;;;58.77;38.53;;;6.60;99.90;;;;;;5022815;28;20036;-79
2022/03/31 05:09:02;;;;;;;54.27;37.37;;;6.60;99.90;;;;;;5025030;28;20017;-79
2022/03/31 05:11:27;;;;;;;56.40;37.93;;;6.60;99.90;;;;;;5011132;28;20482;-79
2022/03/31 05:13:53;;;;;;;51.27;35.20;;;6.70;99.90;;;;;;5011458;28;20037;-79
2022/03/31 05:16:19;;;;;;;54.23;35.97;;;6.70;99.90;;;;;;5013095;28;20028;-79
2022/03/31 05:18:46;;;;;;;53.50;36.27;;;6.70;99.90;;;;;;5025823;28;20028;-76
2022/03/31 05:21:12;;;;;;;53.90;35.63;;;6.70;99.90;;;;;;5007275;28;20053;-79
2022/03/31 05:23:37;;;;;;;50.63;34.80;;;6.70;99.90;;;;;;5027955;28;20021;-76
2022/03/31 05:26:03;;;;;;;45.63;32.40;;;6.80;99.90;;;;;;5029335;28;20560;-77
2022/03/31 05:28:28;;;;;;;47.60;34.27;;;6.80;99.90;;;;;;5024224;28;20038;-77
2022/03/31 05:30:54;;;;;;;49.00;32.90;;;6.90;99.90;;;;;;5011607;28;20203;-77
2022/03/31 05:33:19;;;;;;;42.57;31.13;;;7.10;99.90;;;;;;5008920;28;20046;-81
2022/03/31 05:35:45;;;;;;;47.47;32.73;;;7.10;99.90;;;;;;5006946;28;20040;-80
2022/03/31 05:38:11;;;;;;;53.20;35.67;;;7.10;99.90;;;;;;5007815;28;20065;-81
2022/03/31 05:40:36;;;;;;;59.73;36.40;;;7.00;99.90;;;;;;5007053;28;20168;-81
2022/03/31 05:43:02;;;;;;;58.13;37.40;;;6.90;99.90;;;;;;5007683;28;20741;-80
2022/03/31 05:45:28;;;;;;;57.47;37.97;;;6.90;99.90;;;;;;5009011;28;20072;-80
2022/03/31 05:47:54;;;;;;;50.33;34.67;;;6.90;99.90;;;;;;5006855;28;20057;-80
2022/03/31 05:50:20;;;;;;;49.77;33.63;;;7.00;99.90;;;;;;5007718;28;20034;-81
2022/03/31 05:52:45;;;;;;;51.37;34.30;;;7.10;99.90;;;;;;5007905;28;20061;-81
2022/03/31 05:55:17;;;;;;;48.47;34.23;;;7.10;99.90;;;;;;5007221;28;20483;-81
2022/03/31 05:57:43;;;;;;;54.80;34.77;;;7.20;99.90;;;;;;5005673;28;20037;-77
2022/03/31 06:00:13;;;;;;;55.23;37.53;;;7.30;99.90;;;;;;5013473;28;20385;-76
2022/03/31 06:02:39;;;;;;;57.10;37.10;;;7.40;99.90;;;;;;5011957;28;20505;-76
2022/03/31 06:05:06;;;;;;;51.77;35.33;;;7.30;99.90;;;;;;5008097;28;20120;-76
2022/03/31 06:07:31;;;;;;;51.53;35.97;;;7.30;99.90;;;;;;5007588;28;20041;-77
2022/03/31 06:09:58;;;;;;;53.93;36.47;;;7.30;99.90;;;;;;5008269;28;20493;-76
2022/03/31 06:12:23;;;;;;;63.40;40.07;;;7.30;99.90;;;;;;5007972;28;20026;-76
2022/03/31 06:14:49;;;;;;;67.97;43.90;;;7.20;99.90;;;;;;5008576;28;20441;-77
2022/03/31 06:17:14;;;;;;;52.13;36.27;;;7.20;99.90;;;;;;5006551;28;20032;-77
2022/03/31 06:19:40;;;;;;;51.80;34.27;;;7.20;99.90;;;;;;5008597;28;20026;-77
2022/03/31 06:22:06;;;;;;;47.47;33.80;;;7.20;99.90;;;;;;5008487;28;20037;-77
2022/03/31 06:24:32;;;;;;;49.87;35.07;;;7.20;99.90;;;;;;5012992;28;20025;-77
2022/03/31 06:26:58;;;;;;;50.70;34.10;;;7.10;99.90;;;;;;5024009;28;20034;-79
2022/03/31 06:29:27;;;;;;;55.33;35.83;;;7.20;99.90;;;;;;5006759;28;20032;-80
2022/03/31 06:31:54;;;;;;;50.97;34.37;;;7.30;99.90;;;;;;5013982;28;20456;-80
2022/03/31 06:34:20;;;;;;;52.90;34.13;;;7.40;99.90;;;;;;5029524;28;20037;-80
2022/03/31 06:36:46;;;;;;;53.97;35.67;;;7.40;99.90;;;;;;5010510;28;20805;-80
2022/03/31 06:39:13;;;;;;;53.30;35.57;;;7.40;99.90;;;;;;5010947;28;20021;-80
2022/03/31 06:41:39;;;;;;;51.53;34.67;;;7.40;99.90;;;;;;5010802;28;20128;-80
2022/03/31 06:44:07;;;;;;;52.03;33.63;;;7.40;99.90;;;;;;5010798;28;20045;-78
2022/03/31 06:46:34;;;;;;;49.03;32.83;;;7.50;99.90;;;;;;5025943;28;20037;-78
2022/03/31 06:49:00;;;;;;;49.27;32.83;;;7.60;99.90;;;;;;5011334;28;20022;-79
2022/03/31 06:51:25;;;;;;;50.53;33.70;;;7.60;99.90;;;;;;5009383;28;20041;-78
2022/03/31 06:53:51;;;;;;;53.77;33.83;;;7.70;99.90;;;;;;5006485;28;20080;-80
2022/03/31 06:56:18;;;;;;;47.00;31.60;;;7.70;99.90;;;;;;5008850;28;20034;-80
2022/03/31 06:58:44;;;;;;;49.27;33.23;;;7.70;99.90;;;;;;5008005;28;20044;-77
2022/03/31 07:01:11;;;;;;;54.67;33.77;;;7.60;99.90;;;;;;5009349;28;20136;-79
2022/03/31 07:03:37;;;;;;;50.87;33.90;;;7.60;99.90;;;;;;5009816;28;20061;-79
2022/03/31 07:06:03;;;;;;;51.50;33.00;;;7.60;99.90;;;;;;5007387;28;20056;-80
2022/03/31 07:08:28;;;;;;;51.20;33.40;;;7.70;99.90;;;;;;5008792;28;20064;-80
2022/03/31 07:10:54;;;;;;;49.70;32.23;;;7.70;99.90;;;;;;5008601;28;20030;-80
2022/03/31 07:13:19;;;;;;;52.33;31.63;;;7.80;99.90;;;;;;5008267;28;20045;-80
2022/03/31 07:15:45;;;;;;;48.43;32.70;;;7.80;99.90;;;;;;5009232;28;20616;-80
2022/03/31 07:18:11;;;;;;;47.53;33.10;;;7.70;99.90;;;;;;5010869;28;20022;-79
2022/03/31 07:20:37;;;;;;;50.57;33.90;;;7.90;99.90;;;;;;4997907;28;20026;-79
2022/03/31 07:23:03;;;;;;;49.47;33.17;;;8.00;99.90;;;;;;5009855;28;20092;-79
2022/03/31 07:25:28;;;;;;;60.30;37.70;;;7.90;99.90;;;;;;5025572;28;20025;-77
2022/03/31 07:27:55;;;;;;;83.70;51.30;;;8.00;99.90;;;;;;5011569;28;20084;-77
2022/03/31 07:30:22;;;;;;;76.33;48.37;;;8.10;99.90;;;;;;5011248;28;20495;-80
2022/03/31 07:33:03;;;;;;;53.30;37.20;;;8.10;99.90;;;;;;5012175;28;20046;-79
2022/03/31 07:35:33;;;;;;;52.00;35.57;;;8.20;99.90;;;;;;5012868;28;20026;-80
2022/03/31 07:38:03;;;;;;;47.63;32.87;;;8.30;99.90;;;;;;5012571;28;20790;-79
2022/03/31 07:40:28;;;;;;;51.23;33.33;;;8.50;99.90;;;;;;5012543;28;20025;-79
2022/03/31 07:42:54;;;;;;;49.93;32.30;;;8.50;99.90;;;;;;5012591;28;20479;-79
2022/03/31 07:45:20;;;;;;;51.70;33.77;;;8.50;99.90;;;;;;5012587;28;20034;-79
2022/03/31 07:47:46;;;;;;;47.37;32.27;;;8.50;99.90;;;;;;5012506;28;20045;-79
2022/03/31 07:50:15;;;;;;;52.00;33.40;;;8.60;99.90;;;;;;5012068;28;20021;-79
2022/03/31 07:52:42;;;;;;;46.77;31.93;;;8.70;99.90;;;;;;5011975;28;20121;-79
2022/03/31 07:55:10;;;;;;;43.57;30.83;;;8.70;99.90;;;;;;5012986;28;20030;-79
2022/03/31 07:57:36;;;;;;;50.13;33.00;;;9.00;99.90;;;;;;5010408;28;20736;-79
2022/03/31 08:00:05;;;;;;;51.83;34.67;;;9.10;99.90;;;;;;5009793;28;20742;-79
2022/03/31 08:02:31;;;;;;;53.73;34.37;;;9.20;99.90;;;;;;5020828;28;20417;-79
2022/03/31 08:04:57;;;;;;;50.17;34.03;;;9.20;99.90;;;;;;5011975;28;20048;-79
2022/03/31 08:07:22;;;;;;;49.73;33.53;;;9.20;99.90;;;;;;5012512;28;20739;-79
2022/03/31 08:09:48;;;;;;;50.80;34.67;;;9.00;99.90;;;;;;5023007;28;20398;-74
2022/03/31 08:12:13;;;;;;;54.93;35.47;;;8.90;99.90;;;;;;5023288;28;20423;-79
2022/03/31 08:14:39;;;;;;;51.93;33.57;;;8.90;99.90;;;;;;5010569;28;20045;-79
2022/03/31 08:17:05;;;;;;;53.70;35.83;;;9.00;99.90;;;;;;5010667;28;20030;-79
2022/03/31 08:19:32;;;;;;;51.63;33.90;;;9.10;99.90;;;;;;5009823;28;20033;-80
2022/03/31 08:22:04;;;;;;;49.13;32.30;;;9.10;99.90;;;;;;5011128;28;20018;-79
2022/03/31 08:24:34;;;;;;;50.50;33.83;;;9.10;99.90;;;;;;5010504;28;20475;-78
2022/03/31 08:26:59;;;;;;;49.10;31.73;;;9.20;99.90;;;;;;5007844;28;20073;-79
2022/03/31 08:29:27;;;;;;;47.57;31.83;;;9.20;99.90;;;;;;5008556;28;20061;-79
2022/03/31 08:31:55;;;;;;;46.03;31.10;;;9.10;99.90;;;;;;5010195;28;20046;-79
2022/03/31 08:34:20;;;;;;;49.93;32.87;;;9.10;99.90;;;;;;5010293;28;20034;-77
2022/03/31 08:36:46;;;;;;;52.83;35.43;;;8.90;99.90;;;;;;5012158;28;20790;-78
2022/03/31 08:39:16;;;;;;;49.00;33.67;;;8.90;99.90;;;;;;5012224;28;20385;-79
2022/03/31 08:42:06;;;;;;;50.03;32.80;;;8.80;99.90;;;;;;5007365;28;20022;-79
2022/03/31 08:44:39;;;;;;;51.23;33.93;;;9.00;99.90;;;;;;5000094;28;20149;-78
2022/03/31 08:47:18;;;;;;;51.67;35.00;;;9.10;99.90;;;;;;4996042;28;20022;-79
2022/03/31 08:49:46;;;;;;;52.27;33.17;;;9.10;99.90;;;;;;5012251;28;20091;-76
2022/03/31 08:52:12;;;;;;;45.80;32.10;;;9.10;99.90;;;;;;5026850;28;20394;-76
2022/03/31 08:54:39;;;;;;;54.43;34.90;;;9.10;99.90;;;;;;5010687;28;20064;-76
2022/03/31 08:57:05;;;;;;;54.53;37.07;;;9.00;99.90;;;;;;5011703;28;20826;-78
2022/03/31 08:59:30;;;;;;;49.13;33.67;;;9.00;99.90;;;;;;5026427;28;20052;-78
2022/03/31 09:01:56;;;;;;;51.50;33.87;;;9.10;99.90;;;;;;5010840;28;20120;-76
2022/03/31 09:04:23;;;;;;;48.07;33.17;;;9.20;99.90;;;;;;5013202;28;20450;-76
2022/03/31 09:07:00;;;;;;;50.33;33.07;;;9.30;99.90;;;;;;5012634;28;20018;-76
2022/03/31 09:09:26;;;;;;;50.07;33.87;;;9.30;99.90;;;;;;5022571;28;20034;-76
2022/03/31 09:11:51;;;;;;;52.37;33.43;;;9.30;99.90;;;;;;5032460;28;20036;-76
2022/03/31 09:14:28;;;;;;;46.10;31.63;;;9.30;99.90;;;;;;5031064;28;20109;-76
2022/03/31 09:16:53;;;;;;;50.10;33.90;;;9.40;99.90;;;;;;5026786;28;20126;-76
2022/03/31 09:19:20;;;;;;;49.77;33.73;;;9.30;99.90;;;;;;5012205;28;20106;-76
2022/03/31 09:21:52;;;;;;;52.13;32.47;;;9.30;99.90;;;;;;5012177;28;20034;-78
2022/03/31 09:24:20;;;;;;;56.37;34.83;;;9.30;99.90;;;;;;5019360;28;20385;-79
2022/03/31 09:26:47;;;;;;;48.07;32.43;;;9.40;99.90;;;;;;5006477;28;20026;-79
2022/03/31 09:29:14;;;;;;;50.80;32.67;;;9.40;99.90;;;;;;5010054;28;20080;-79
2022/03/31 09:31:40;;;;;;;48.43;31.57;;;9.50;99.90;;;;;;5007914;28;20050;-78
2022/03/31 09:34:06;;;;;;;47.77;30.43;;;10.00;99.90;;;;;;5006865;28;20038;-79
2022/03/31 09:36:32;;;;;;;43.47;28.40;;;10.10;99.90;;;;;;5008557;28;20049;-79
2022/03/31 09:39:05;;;;;;;47.17;31.37;;;10.40;99.90;;;;;;5007979;28;20030;-79
2022/03/31 09:41:40;;;;;;;43.37;28.27;;;10.60;99.90;;;;;;5007977;28;20100;-79
2022/03/31 09:44:09;;;;;;;77.97;52.47;;;10.80;99.90;;;;;;5023066;28;20029;-79
2022/03/31 09:46:39;;;;;;;75.87;48.20;;;10.90;99.90;;;;;;5023098;28;20478;-79
2022/03/31 09:49:25;;;;;;;36.63;26.97;;;10.90;99.90;;;;;;5007491;28;20077;-79
2022/03/31 09:52:00;;;;;;;38.80;25.43;;;11.10;99.90;;;;;;5007235;28;20034;-79
2022/03/31 09:54:29;;;;;;;37.40;25.70;;;11.20;99.90;;;;;;5007779;28;20049;-78
2022/03/31 09:56:56;;;;;;;37.83;26.60;;;11.40;99.90;;;;;;5006065;28;20037;-79
2022/03/31 09:59:32;;;;;;;42.30;27.27;;;11.30;99.90;;;;;;4996233;28;20033;-79
2022/03/31 10:01:58;;;;;;;40.07;27.03;;;11.30;99.90;;;;;;5005929;28;20022;-79
2022/03/31 10:04:24;;;;;;;39.70;26.07;;;11.40;99.90;;;;;;5005973;28;20050;-79
2022/03/31 10:06:51;;;;;;;39.10;24.57;;;11.50;99.90;;;;;;5009124;28;20328;-79
2022/03/31 10:09:17;;;;;;;41.37;24.40;;;11.60;99.90;;;;;;5011440;28;20025;-80
2022/03/31 10:11:45;;;;;;;40.07;24.63;;;11.90;99.90;;;;;;5011286;28;20029;-79
2022/03/31 10:14:46;;;;;;;36.20;25.10;;;11.90;99.90;;;;;;5011554;28;20022;-80
2022/03/31 10:17:12;;;;;;;35.07;24.57;;;11.90;99.90;;;;;;5009474;28;20100;-79
2022/03/31 10:19:40;;;;;;;38.27;25.30;;;12.00;99.90;;;;;;5015161;28;20031;-80
2022/03/31 10:25:05;;;;;;;31.50;22.50;;;11.90;99.90;;;;;;5008898;28;20037;-79
2022/03/31 10:27:33;;;;;;;35.30;24.27;;;12.00;99.90;;;;;;5011993;28;20492;-80
2022/03/31 10:30:12;;;;;;;37.60;25.13;;;12.10;99.90;;;;;;5012113;28;20025;-79
2022/03/31 10:32:53;;;;;;;52.17;34.67;;;11.90;99.90;;;;;;5010539;28;20448;-79
2022/03/31 10:35:41;;;;;;;33.22;23.90;;;12.00;99.90;;;;;;5010794;28;20034;-79
2022/03/31 10:38:25;;;;;;;32.90;22.43;;;12.10;99.90;;;;;;5008979;28;20084;-80
2022/03/31 10:40:52;;;;;;;32.03;22.53;;;12.20;99.90;;;;;;5010755;28;20053;-79
2022/03/31 10:43:26;;;;;;;33.53;22.07;;;12.10;99.90;;;;;;5025835;28;20033;-79
2022/03/31 10:45:54;;;;;;;36.67;22.95;;;12.20;99.90;;;;;;5010997;28;20024;-79
2022/03/31 10:48:24;;;;;;;34.03;23.35;;;12.20;99.90;;;;;;5010711;28;20029;-79
2022/03/31 10:51:10;;;;;;;33.67;23.42;;;12.30;99.90;;;;;;5008591;28;20022;-79
2022/03/31 10:53:42;;;;;;;35.40;24.73;;;12.20;99.90;;;;;;5010581;28;20038;-80
2022/03/31 10:56:29;;;;;;;35.28;24.48;;;12.10;99.90;;;;;;5009023;28;20173;-80
2022/03/31 10:59:00;;;;;;;33.80;22.98;;;12.10;99.90;;;;;;5003409;28;20038;-80
2022/03/31 11:01:28;;;;;;;32.83;22.98;;;12.20;99.90;;;;;;5021752;28;20049;-80
2022/03/31 11:04:03;;;;;;;33.60;23.40;;;12.20;99.90;;;;;;5009092;28;20065;-80
2022/03/31 11:06:30;;;;;;;33.58;23.58;;;12.30;99.90;;;;;;5010490;28;20026;-79
2022/03/31 11:08:56;;;;;;;33.07;22.67;;;12.30;99.90;;;;;;5018424;28;20050;-78
2022/03/31 11:11:29;;;;;;;36.10;22.65;;;12.30;99.90;;;;;;5026875;28;20041;-78
2022/03/31 11:13:57;;;;;;;34.58;22.25;;;12.40;99.90;;;;;;5025407;28;20029;-78
2022/03/31 11:16:43;;;;;;;33.83;21.35;;;12.50;99.90;;;;;;5025343;28;20048;-78
2022/03/31 11:19:09;;;;;;;29.52;20.17;;;12.50;99.90;;;;;;5024101;28;20115;-78
2022/03/31 11:21:42;;;;;;;29.85;20.90;;;12.60;99.90;;;;;;5031215;28;20038;-78
2022/03/31 11:24:09;;;;;;;32.53;20.00;;;12.60;99.90;;;;;;5009877;28;20112;-78
2022/03/31 11:26:40;;;;;;;29.90;20.65;;;12.40;99.90;;;;;;5010009;28;20034;-78
2022/03/31 11:29:18;;;;;;;35.42;22.02;;;12.30;99.90;;;;;;5009967;28;20037;-78
2022/03/31 11:31:48;;;;;;;32.42;21.60;;;12.50;99.90;;;;;;5009481;28;20046;-78
2022/03/31 11:34:22;;;;;;;29.73;21.27;;;12.60;99.90;;;;;;5009818;28;20034;-78
2022/03/31 11:36:48;;;;;;;27.73;19.90;;;12.60;99.90;;;;;;5008346;28;20038;-78
2022/03/31 11:39:14;;;;;;;31.30;21.42;;;12.60;99.90;;;;;;5010736;28;20410;-78
2022/03/31 11:41:42;;;;;;;30.25;21.05;;;12.60;99.90;;;;;;5013259;28;20064;-78
2022/03/31 11:44:08;;;;;;;33.95;23.88;;;12.60;99.90;;;;;;5021093;28;20026;-78
2022/03/31 11:46:47;;;;;;;32.05;22.20;;;12.70;99.90;;;;;;5023251;28;20423;-78
2022/03/31 11:49:18;;;;;;;29.05;20.85;;;12.50;99.90;;;;;;5022437;28;20022;-78
2022/03/31 11:51:55;;;;;;;32.35;20.50;;;12.70;99.90;;;;;;5013200;28;20061;-78
2022/03/31 11:54:21;;;;;;;32.60;22.70;;;12.60;99.90;;;;;;5012073;28;20022;-78
2022/03/31 11:56:47;;;;;;;31.95;22.02;;;12.70;99.90;;;;;;5011654;28;20096;-78
2022/03/31 11:59:14;;;;;;;31.95;21.33;;;12.80;99.90;;;;;;5017355;28;20076;-78
2022/03/31 12:01:43;;;;;;;34.05;22.55;;;12.80;99.90;;;;;;5011931;28;20081;-78
2022/03/31 12:04:24;;;;;;;33.45;22.65;;;12.80;99.90;;;;;;5012260;28;20414;-78
2022/03/31 12:06:51;;;;;;;30.95;22.38;;;12.80;99.90;;;;;;5012164;28;20018;-77
2022/03/31 12:09:17;;;;;;;33.90;22.55;;;12.60;99.90;;;;;;5011782;28;20026;-78
2022/03/31 12:11:43;;;;;;;34.80;23.05;;;12.60;99.90;;;;;;5014421;28;20493;-78
2022/03/31 12:14:10;;;;;;;33.45;23.05;;;12.60;99.90;;;;;;5011901;28;20382;-78
2022/03/31 12:16:47;;;;;;;38.20;25.58;;;12.80;99.90;;;;;;5011931;28;20046;-78
2022/03/31 12:19:13;;;;;;;41.30;26.23;;;12.70;99.90;;;;;;5028140;28;20029;-78
2022/03/31 12:21:49;;;;;;;64.38;41.92;;;12.60;99.90;;;;;;5030947;28;20714;-77
2022/03/31 12:24:16;;;;;;;39.45;25.70;;;12.70;99.90;;;;;;5023531;28;20025;-78
2022/03/31 12:26:53;;;;;;;63.35;40.25;;;12.80;99.90;;;;;;5017251;28;20049;-78
2022/03/31 12:29:20;;;;;;;37.10;23.75;;;12.80;99.90;;;;;;5025854;28;20025;-77
2022/03/31 12:31:46;;;;;;;44.30;29.35;;;12.70;99.90;;;;;;5027991;28;20048;-78
2022/03/31 12:34:14;;;;;;;43.42;26.92;;;12.60;99.90;;;;;;5011163;28;20018;-80
2022/03/31 12:36:42;;;;;;;51.42;33.10;;;12.60;99.90;;;;;;5013070;28;20368;-72
2022/03/31 12:39:08;;;;;;;40.38;28.77;;;12.40;99.90;;;;;;5013984;28;20129;-72
2022/03/31 12:41:39;;;;;;;29.77;20.60;;;12.20;99.90;;;;;;5013604;28;20050;-72